sensor_id;sensor_type;location;lat;lon;timestamp;temperature;humidity
44305;DHT22;30019;50.576;8.568;2023-05-01T12:42:54;22.40;74.30
44305;DHT22;30019;50.576;8.568;2023-05-01T12:45:21;22.00;74.80
44305;DHT22;30019;50.576;8.568;2023-05-01T12:47:47;22.30;79.10
44305;DHT22;30019;50.576;8.568;2023-05-01T12:50:12;22.10;75.30
44305;DHT22;30019;50.576;8.568;2023-05-01T12:52:38;21.80;74.50
44305;DHT22;30019;50.576;8.568;2023-05-01T12:55:04;21.20;69.80
44305;DHT22;30019;50.576;8.568;2023-05-01T12:57:29;20.90;77.50
44305;DHT22;30019;50.576;8.568;2023-05-01T12:59:59;21.20;76.60
44305;DHT22;30019;50.576;8.568;2023-05-01T13:02:28;21.60;78.20
44305;DHT22;30019;50.576;8.568;2023-05-01T13:05:04;21.90;75.50
44305;DHT22;30019;50.576;8.568;2023-05-01T13:07:29;22.00;74.10
44305;DHT22;30019;50.576;8.568;2023-05-01T13:09:56;22.40;73.60
44305;DHT22;30019;50.576;8.568;2023-05-01T13:12:22;22.10;71.00
44305;DHT22;30019;50.576;8.568;2023-05-01T13:14:48;21.80;73.30
44305;DHT22;30019;50.576;8.568;2023-05-01T13:17:20;21.30;76.10
44305;DHT22;30019;50.576;8.568;2023-05-01T13:19:51;21.00;79.50
44305;DHT22;30019;50.576;8.568;2023-05-01T13:22:18;20.40;77.30
44305;DHT22;30019;50.576;8.568;2023-05-01T13:24:52;19.90;81.00
44305;DHT22;30019;50.576;8.568;2023-05-01T13:27:19;19.70;80.50
44305;DHT22;30019;50.576;8.568;2023-05-01T13:29:50;19.40;81.90
44305;DHT22;30019;50.576;8.568;2023-05-01T13:32:16;19.30;81.60
44305;DHT22;30019;50.576;8.568;2023-05-01T13:34:42;19.10;82.30
44305;DHT22;30019;50.576;8.568;2023-05-01T13:37:10;19.00;84.80
44305;DHT22;30019;50.576;8.568;2023-05-01T13:39:42;18.80;86.00
44305;DHT22;30019;50.576;8.568;2023-05-01T13:42:11;18.70;84.00
44305;DHT22;30019;50.576;8.568;2023-05-01T13:44:45;18.40;85.40
44305;DHT22;30019;50.576;8.568;2023-05-01T13:47:14;18.30;87.60
44305;DHT22;30019;50.576;8.568;2023-05-01T13:49:40;18.20;87.40
44305;DHT22;30019;50.576;8.568;2023-05-01T13:52:06;18.20;88.70
44305;DHT22;30019;50.576;8.568;2023-05-01T13:54:31;18.10;88.00
44305;DHT22;30019;50.576;8.568;2023-05-01T13:56:59;18.20;88.60
44305;DHT22;30019;50.576;8.568;2023-05-01T13:59:35;18.10;85.70
44305;DHT22;30019;50.576;8.568;2023-05-01T14:02:01;18.10;86.40
44305;DHT22;30019;50.576;8.568;2023-05-01T14:04:35;18.10;83.70
44305;DHT22;30019;50.576;8.568;2023-05-01T14:07:01;17.90;85.30
44305;DHT22;30019;50.576;8.568;2023-05-01T14:09:27;18.00;86.30
44305;DHT22;30019;50.576;8.568;2023-05-01T14:11:52;18.00;86.50
44305;DHT22;30019;50.576;8.568;2023-05-01T14:14:18;17.90;86.70
44305;DHT22;30019;50.576;8.568;2023-05-01T14:16:47;17.90;88.30
44305;DHT22;30019;50.576;8.568;2023-05-01T14:19:13;18.00;88.50
44305;DHT22;30019;50.576;8.568;2023-05-01T14:21:39;17.90;89.70
44305;DHT22;30019;50.576;8.568;2023-05-01T14:24:08;17.80;89.90
44305;DHT22;30019;50.576;8.568;2023-05-01T14:26:35;17.80;90.50
44305;DHT22;30019;50.576;8.568;2023-05-01T14:29:02;17.80;90.70
44305;DHT22;30019;50.576;8.568;2023-05-01T14:31:28;17.70;90.20
44305;DHT22;30019;50.576;8.568;2023-05-01T14:34:03;17.70;91.00
44305;DHT22;30019;50.576;8.568;2023-05-01T14:36:30;17.60;90.60
44305;DHT22;30019;50.576;8.568;2023-05-01T14:38:57;17.60;90.80
44305;DHT22;30019;50.576;8.568;2023-05-01T14:41:22;17.70;91.20
44305;DHT22;30019;50.576;8.568;2023-05-01T14:43:49;17.70;91.60
44305;DHT22;30019;50.576;8.568;2023-05-01T14:46:29;17.70;91.90
44305;DHT22;30019;50.576;8.568;2023-05-01T14:48:55;17.70;92.00
44305;DHT22;30019;50.576;8.568;2023-05-01T14:51:21;17.70;91.40
44305;DHT22;30019;50.576;8.568;2023-05-01T14:53:46;17.70;91.30
44305;DHT22;30019;50.576;8.568;2023-05-01T14:56:12;17.80;91.70
44305;DHT22;30019;50.576;8.568;2023-05-01T14:58:37;17.80;92.50
44305;DHT22;30019;50.576;8.568;2023-05-01T15:01:03;17.90;91.40
44305;DHT22;30019;50.576;8.568;2023-05-01T15:03:29;18.00;91.50
44305;DHT22;30019;50.576;8.568;2023-05-01T15:05:54;18.20;92.00
44305;DHT22;30019;50.576;8.568;2023-05-01T15:08:21;18.30;90.50
44305;DHT22;30019;50.576;8.568;2023-05-01T15:10:46;18.40;88.40
44305;DHT22;30019;50.576;8.568;2023-05-01T15:13:12;18.50;91.20
44305;DHT22;30019;50.576;8.568;2023-05-01T15:15:37;18.60;90.70
44305;DHT22;30019;50.576;8.568;2023-05-01T15:18:03;18.60;89.50
44305;DHT22;30019;50.576;8.568;2023-05-01T15:20:28;18.30;85.00
44305;DHT22;30019;50.576;8.568;2023-05-01T15:22:54;18.30;87.40
44305;DHT22;30019;50.576;8.568;2023-05-01T15:25:20;18.50;87.80
44305;DHT22;30019;50.576;8.568;2023-05-01T15:27:45;18.40;89.30
44305;DHT22;30019;50.576;8.568;2023-05-01T15:30:11;18.50;90.10
44305;DHT22;30019;50.576;8.568;2023-05-01T15:32:37;18.70;90.80
44305;DHT22;30019;50.576;8.568;2023-05-01T15:35:03;18.90;90.10
44305;DHT22;30019;50.576;8.568;2023-05-01T15:37:29;18.90;90.50
44305;DHT22;30019;50.576;8.568;2023-05-01T15:39:55;19.00;88.10
44305;DHT22;30019;50.576;8.568;2023-05-01T15:42:20;18.90;84.10
44305;DHT22;30019;50.576;8.568;2023-05-01T15:44:47;18.90;89.50
44305;DHT22;30019;50.576;8.568;2023-05-01T15:47:12;19.00;90.00
44305;DHT22;30019;50.576;8.568;2023-05-01T15:49:38;18.90;87.50
44305;DHT22;30019;50.576;8.568;2023-05-01T15:52:03;19.00;90.30
44305;DHT22;30019;50.576;8.568;2023-05-01T15:54:29;19.10;88.60
44305;DHT22;30019;50.576;8.568;2023-05-01T15:56:55;18.90;87.30
44305;DHT22;30019;50.576;8.568;2023-05-01T15:59:20;19.00;85.00
44305;DHT22;30019;50.576;8.568;2023-05-01T16:01:46;18.90;86.80
44305;DHT22;30019;50.576;8.568;2023-05-01T16:04:11;18.70;85.60
44305;DHT22;30019;50.576;8.568;2023-05-01T16:06:37;18.50;83.80
44305;DHT22;30019;50.576;8.568;2023-05-01T16:09:04;18.40;89.10
44305;DHT22;30019;50.576;8.568;2023-05-01T16:11:29;18.50;86.00
44305;DHT22;30019;50.576;8.568;2023-05-01T16:13:55;18.40;87.00
44305;DHT22;30019;50.576;8.568;2023-05-01T16:16:22;18.50;88.00
44305;DHT22;30019;50.576;8.568;2023-05-01T16:18:48;18.40;88.30
44305;DHT22;30019;50.576;8.568;2023-05-01T16:21:16;18.30;84.60
44305;DHT22;30019;50.576;8.568;2023-05-01T16:23:41;18.20;85.30
44305;DHT22;30019;50.576;8.568;2023-05-01T16:28:52;18.20;87.30
44305;DHT22;30019;50.576;8.568;2023-05-01T16:31:19;18.10;88.50
44305;DHT22;30019;50.576;8.568;2023-05-01T16:33:45;18.10;89.30
44305;DHT22;30019;50.576;8.568;2023-05-01T16:36:14;18.20;87.20
44305;DHT22;30019;50.576;8.568;2023-05-01T16:38:40;18.10;89.60
44305;DHT22;30019;50.576;8.568;2023-05-01T16:41:06;18.00;88.70
44305;DHT22;30019;50.576;8.568;2023-05-01T16:43:31;18.10;89.60
44305;DHT22;30019;50.576;8.568;2023-05-01T16:45:57;18.20;89.50
44305;DHT22;30019;50.576;8.568;2023-05-01T16:48:22;18.30;88.60
44305;DHT22;30019;50.576;8.568;2023-05-01T16:50:48;18.40;89.40
44305;DHT22;30019;50.576;8.568;2023-05-01T16:53:13;18.40;86.90
44305;DHT22;30019;50.576;8.568;2023-05-01T16:55:39;18.50;88.00
44305;DHT22;30019;50.576;8.568;2023-05-01T16:58:05;18.60;90.50
44305;DHT22;30019;50.576;8.568;2023-05-01T17:00:31;18.60;87.90
44305;DHT22;30019;50.576;8.568;2023-05-01T17:02:56;18.80;90.90
44305;DHT22;30019;50.576;8.568;2023-05-01T17:05:23;18.70;85.50
44305;DHT22;30019;50.576;8.568;2023-05-01T17:07:49;18.40;86.20
44305;DHT22;30019;50.576;8.568;2023-05-01T17:10:14;18.30;87.30
44305;DHT22;30019;50.576;8.568;2023-05-01T17:12:40;18.20;87.40
44305;DHT22;30019;50.576;8.568;2023-05-01T17:15:05;17.90;90.70
44305;DHT22;30019;50.576;8.568;2023-05-01T17:17:31;17.60;90.30
44305;DHT22;30019;50.576;8.568;2023-05-01T17:19:56;17.40;90.60
44305;DHT22;30019;50.576;8.568;2023-05-01T17:22:22;17.30;91.00
44305;DHT22;30019;50.576;8.568;2023-05-01T17:24:47;17.20;91.00
44305;DHT22;30019;50.576;8.568;2023-05-01T17:27:14;17.20;91.00
44305;DHT22;30019;50.576;8.568;2023-05-01T17:29:40;17.20;91.20
44305;DHT22;30019;50.576;8.568;2023-05-01T17:32:09;17.20;91.20
44305;DHT22;30019;50.576;8.568;2023-05-01T17:34:34;17.00;91.10
44305;DHT22;30019;50.576;8.568;2023-05-01T17:37:00;16.80;92.50
44305;DHT22;30019;50.576;8.568;2023-05-01T17:39:25;16.70;92.30
44305;DHT22;30019;50.576;8.568;2023-05-01T17:41:52;16.70;91.90
44305;DHT22;30019;50.576;8.568;2023-05-01T17:44:17;16.70;91.80
44305;DHT22;30019;50.576;8.568;2023-05-01T17:46:43;16.70;92.70
44305;DHT22;30019;50.576;8.568;2023-05-01T17:49:08;16.60;92.80
44305;DHT22;30019;50.576;8.568;2023-05-01T17:51:34;16.50;94.00
44305;DHT22;30019;50.576;8.568;2023-05-01T17:53:59;16.40;92.70
44305;DHT22;30019;50.576;8.568;2023-05-01T17:56:25;16.30;93.30
44305;DHT22;30019;50.576;8.568;2023-05-01T17:58:51;16.20;93.90
44305;DHT22;30019;50.576;8.568;2023-05-01T18:01:17;16.10;94.10
44305;DHT22;30019;50.576;8.568;2023-05-01T18:03:42;16.10;93.60
44305;DHT22;30019;50.576;8.568;2023-05-01T18:06:09;15.90;93.90
44305;DHT22;30019;50.576;8.568;2023-05-01T18:08:34;16.00;94.40
44305;DHT22;30019;50.576;8.568;2023-05-01T18:11:00;15.90;94.40
44305;DHT22;30019;50.576;8.568;2023-05-01T18:13:26;15.80;95.00
44305;DHT22;30019;50.576;8.568;2023-05-01T18:15:55;15.80;95.40
44305;DHT22;30019;50.576;8.568;2023-05-01T18:18:20;15.70;95.50
44305;DHT22;30019;50.576;8.568;2023-05-01T18:20:46;15.60;95.60
44305;DHT22;30019;50.576;8.568;2023-05-01T18:23:13;15.60;95.90
44305;DHT22;30019;50.576;8.568;2023-05-01T18:25:38;15.40;96.30
44305;DHT22;30019;50.576;8.568;2023-05-01T18:28:04;15.40;97.80
44305;DHT22;30019;50.576;8.568;2023-05-01T18:30:29;15.30;98.70
44305;DHT22;30019;50.576;8.568;2023-05-01T18:32:55;15.10;99.90
44305;DHT22;30019;50.576;8.568;2023-05-01T18:35:21;14.80;99.90
44305;DHT22;30019;50.576;8.568;2023-05-01T18:37:46;14.70;99.90
44305;DHT22;30019;50.576;8.568;2023-05-01T18:40:12;14.60;99.90
44305;DHT22;30019;50.576;8.568;2023-05-01T18:42:38;14.50;99.90
44305;DHT22;30019;50.576;8.568;2023-05-01T18:45:04;14.50;99.90
44305;DHT22;30019;50.576;8.568;2023-05-01T18:47:30;14.40;99.90
44305;DHT22;30019;50.576;8.568;2023-05-01T18:49:56;14.30;99.90
44305;DHT22;30019;50.576;8.568;2023-05-01T18:52:22;14.30;99.90
44305;DHT22;30019;50.576;8.568;2023-05-01T18:54:47;14.30;99.90
44305;DHT22;30019;50.576;8.568;2023-05-01T18:57:13;14.40;99.90
44305;DHT22;30019;50.576;8.568;2023-05-01T18:59:38;14.40;99.90
44305;DHT22;30019;50.576;8.568;2023-05-01T19:02:04;14.40;99.90
44305;DHT22;30019;50.576;8.568;2023-05-01T19:04:30;14.50;99.90
44305;DHT22;30019;50.576;8.568;2023-05-01T19:06:55;14.50;99.90
44305;DHT22;30019;50.576;8.568;2023-05-01T19:09:21;14.50;99.90
44305;DHT22;30019;50.576;8.568;2023-05-01T19:11:46;14.50;99.90
44305;DHT22;30019;50.576;8.568;2023-05-01T19:14:12;14.40;99.90
44305;DHT22;30019;50.576;8.568;2023-05-01T19:16:38;14.40;99.90
44305;DHT22;30019;50.576;8.568;2023-05-01T19:19:03;14.30;99.90
44305;DHT22;30019;50.576;8.568;2023-05-01T19:21:29;14.30;99.90
44305;DHT22;30019;50.576;8.568;2023-05-01T19:23:56;14.20;99.90
44305;DHT22;30019;50.576;8.568;2023-05-01T19:26:21;14.20;99.90
44305;DHT22;30019;50.576;8.568;2023-05-01T19:28:47;14.20;99.90
44305;DHT22;30019;50.576;8.568;2023-05-01T19:33:59;14.10;99.90
44305;DHT22;30019;50.576;8.568;2023-05-01T19:36:24;14.00;99.90
44305;DHT22;30019;50.576;8.568;2023-05-01T19:38:50;14.00;99.90
44305;DHT22;30019;50.576;8.568;2023-05-01T19:41:16;13.90;99.90
44305;DHT22;30019;50.576;8.568;2023-05-01T19:43:41;13.90;99.90
44305;DHT22;30019;50.576;8.568;2023-05-01T19:46:07;13.80;99.90
44305;DHT22;30019;50.576;8.568;2023-05-01T19:48:32;13.70;99.90
44305;DHT22;30019;50.576;8.568;2023-05-01T19:50:58;13.60;99.90
44305;DHT22;30019;50.576;8.568;2023-05-01T19:53:23;13.50;99.90
44305;DHT22;30019;50.576;8.568;2023-05-01T19:55:49;13.40;99.90
44305;DHT22;30019;50.576;8.568;2023-05-01T19:58:14;13.30;99.90
44305;DHT22;30019;50.576;8.568;2023-05-01T20:00:40;13.20;99.90
44305;DHT22;30019;50.576;8.568;2023-05-01T20:03:06;13.20;99.90
44305;DHT22;30019;50.576;8.568;2023-05-01T20:05:31;13.00;99.90
44305;DHT22;30019;50.576;8.568;2023-05-01T20:07:57;13.00;99.90
44305;DHT22;30019;50.576;8.568;2023-05-01T20:10:24;12.90;99.90
44305;DHT22;30019;50.576;8.568;2023-05-01T20:12:50;12.80;99.90
44305;DHT22;30019;50.576;8.568;2023-05-01T20:15:16;12.70;99.90
44305;DHT22;30019;50.576;8.568;2023-05-01T20:17:41;12.70;99.90
44305;DHT22;30019;50.576;8.568;2023-05-01T20:20:07;12.70;99.90
44305;DHT22;30019;50.576;8.568;2023-05-01T20:22:34;12.60;99.90
44305;DHT22;30019;50.576;8.568;2023-05-01T20:25:00;12.60;99.90
44305;DHT22;30019;50.576;8.568;2023-05-01T20:27:25;12.50;99.90
44305;DHT22;30019;50.576;8.568;2023-05-01T20:29:51;12.40;99.90
44305;DHT22;30019;50.576;8.568;2023-05-01T20:32:16;12.30;99.90
44305;DHT22;30019;50.576;8.568;2023-05-01T20:34:42;12.20;99.90
44305;DHT22;30019;50.576;8.568;2023-05-01T20:37:08;12.10;99.90
44305;DHT22;30019;50.576;8.568;2023-05-01T20:39:33;12.00;99.90
44305;DHT22;30019;50.576;8.568;2023-05-01T20:41:59;12.00;99.90
44305;DHT22;30019;50.576;8.568;2023-05-01T20:44:25;12.00;99.90
44305;DHT22;30019;50.576;8.568;2023-05-01T20:46:51;11.90;99.90
44305;DHT22;30019;50.576;8.568;2023-05-01T20:49:17;11.90;99.90
44305;DHT22;30019;50.576;8.568;2023-05-01T20:51:44;11.90;99.90
44305;DHT22;30019;50.576;8.568;2023-05-01T20:54:10;11.90;99.90
44305;DHT22;30019;50.576;8.568;2023-05-01T20:56:35;11.90;99.90
44305;DHT22;30019;50.576;8.568;2023-05-01T20:59:02;11.90;99.90
44305;DHT22;30019;50.576;8.568;2023-05-01T21:01:28;11.90;99.90
44305;DHT22;30019;50.576;8.568;2023-05-01T21:03:53;12.00;99.90
44305;DHT22;30019;50.576;8.568;2023-05-01T21:06:19;12.10;99.90
44305;DHT22;30019;50.576;8.568;2023-05-01T21:08:45;12.20;99.90
44305;DHT22;30019;50.576;8.568;2023-05-01T21:11:11;12.40;99.90
44305;DHT22;30019;50.576;8.568;2023-05-01T21:13:37;12.40;99.90
44305;DHT22;30019;50.576;8.568;2023-05-01T21:16:03;12.40;99.90
44305;DHT22;30019;50.576;8.568;2023-05-01T21:18:31;12.50;99.90
44305;DHT22;30019;50.576;8.568;2023-05-01T21:20:57;12.50;99.90
44305;DHT22;30019;50.576;8.568;2023-05-01T21:23:25;12.50;99.90
44305;DHT22;30019;50.576;8.568;2023-05-01T21:25:52;12.50;99.90
44305;DHT22;30019;50.576;8.568;2023-05-01T21:28:17;12.40;99.90
44305;DHT22;30019;50.576;8.568;2023-05-01T21:30:43;12.40;99.90
44305;DHT22;30019;50.576;8.568;2023-05-01T21:33:12;12.40;99.90
44305;DHT22;30019;50.576;8.568;2023-05-01T21:35:39;12.40;99.90
44305;DHT22;30019;50.576;8.568;2023-05-01T21:38:05;12.40;99.90
44305;DHT22;30019;50.576;8.568;2023-05-01T21:40:32;12.40;99.90
44305;DHT22;30019;50.576;8.568;2023-05-01T21:43:00;12.50;99.90
44305;DHT22;30019;50.576;8.568;2023-05-01T21:45:25;12.40;99.90
44305;DHT22;30019;50.576;8.568;2023-05-01T21:47:51;12.40;99.90
44305;DHT22;30019;50.576;8.568;2023-05-01T21:50:17;12.40;99.90
44305;DHT22;30019;50.576;8.568;2023-05-01T21:52:43;12.40;99.90
44305;DHT22;30019;50.576;8.568;2023-05-01T21:55:19;12.30;99.90
44305;DHT22;30019;50.576;8.568;2023-05-01T21:57:45;12.30;99.90
44305;DHT22;30019;50.576;8.568;2023-05-01T22:00:11;12.20;99.90
44305;DHT22;30019;50.576;8.568;2023-05-01T22:02:40;12.10;99.90
44305;DHT22;30019;50.576;8.568;2023-05-01T22:05:06;12.10;99.90
44305;DHT22;30019;50.576;8.568;2023-05-01T22:07:32;12.00;99.90
44305;DHT22;30019;50.576;8.568;2023-05-01T22:09:58;11.90;99.90
44305;DHT22;30019;50.576;8.568;2023-05-01T22:12:24;11.90;99.90
44305;DHT22;30019;50.576;8.568;2023-05-01T22:14:49;11.90;99.90
44305;DHT22;30019;50.576;8.568;2023-05-01T22:17:15;11.80;99.90
44305;DHT22;30019;50.576;8.568;2023-05-01T22:19:50;11.80;99.90
44305;DHT22;30019;50.576;8.568;2023-05-01T22:22:16;11.60;99.90
44305;DHT22;30019;50.576;8.568;2023-05-01T22:24:42;11.60;99.90
44305;DHT22;30019;50.576;8.568;2023-05-01T22:27:07;11.60;99.90
44305;DHT22;30019;50.576;8.568;2023-05-01T22:29:33;11.50;99.90
44305;DHT22;30019;50.576;8.568;2023-05-01T22:31:58;11.50;99.90
44305;DHT22;30019;50.576;8.568;2023-05-01T22:34:24;11.50;99.90
44305;DHT22;30019;50.576;8.568;2023-05-01T22:36:49;11.40;99.90
44305;DHT22;30019;50.576;8.568;2023-05-01T22:39:15;11.20;99.90
44305;DHT22;30019;50.576;8.568;2023-05-01T22:41:40;11.30;99.90
44305;DHT22;30019;50.576;8.568;2023-05-01T22:44:06;11.20;99.90
44305;DHT22;30019;50.576;8.568;2023-05-01T22:46:31;11.10;99.90
44305;DHT22;30019;50.576;8.568;2023-05-01T22:48:57;11.00;99.90
44305;DHT22;30019;50.576;8.568;2023-05-01T22:51:23;11.00;99.90
44305;DHT22;30019;50.576;8.568;2023-05-01T22:53:49;10.90;99.90
44305;DHT22;30019;50.576;8.568;2023-05-01T22:56:15;10.90;99.90
44305;DHT22;30019;50.576;8.568;2023-05-01T22:58:40;10.80;99.90
44305;DHT22;30019;50.576;8.568;2023-05-01T23:01:06;10.70;99.90
44305;DHT22;30019;50.576;8.568;2023-05-01T23:03:32;10.70;99.90
44305;DHT22;30019;50.576;8.568;2023-05-01T23:05:58;10.70;99.90
44305;DHT22;30019;50.576;8.568;2023-05-01T23:08:23;10.60;99.90
44305;DHT22;30019;50.576;8.568;2023-05-01T23:10:48;10.60;99.90
44305;DHT22;30019;50.576;8.568;2023-05-01T23:13:16;10.60;99.90
44305;DHT22;30019;50.576;8.568;2023-05-01T23:15:42;10.50;99.90
44305;DHT22;30019;50.576;8.568;2023-05-01T23:18:09;10.60;99.90
44305;DHT22;30019;50.576;8.568;2023-05-01T23:20:36;10.50;99.90
44305;DHT22;30019;50.576;8.568;2023-05-01T23:23:04;10.50;99.90
44305;DHT22;30019;50.576;8.568;2023-05-01T23:25:30;10.40;99.90
44305;DHT22;30019;50.576;8.568;2023-05-01T23:27:56;10.40;99.90
44305;DHT22;30019;50.576;8.568;2023-05-01T23:30:21;10.40;99.90
44305;DHT22;30019;50.576;8.568;2023-05-01T23:32:47;10.40;99.90
44305;DHT22;30019;50.576;8.568;2023-05-01T23:35:13;10.30;99.90
44305;DHT22;30019;50.576;8.568;2023-05-01T23:37:39;10.30;99.90
44305;DHT22;30019;50.576;8.568;2023-05-01T23:40:05;10.30;99.90
44305;DHT22;30019;50.576;8.568;2023-05-01T23:42:30;10.30;99.90
44305;DHT22;30019;50.576;8.568;2023-05-01T23:44:57;10.30;99.90
44305;DHT22;30019;50.576;8.568;2023-05-01T23:47:22;10.20;99.90
44305;DHT22;30019;50.576;8.568;2023-05-01T23:49:48;10.20;99.90
44305;DHT22;30019;50.576;8.568;2023-05-01T23:52:13;10.10;99.90
44305;DHT22;30019;50.576;8.568;2023-05-01T23:54:39;10.20;99.90
44305;DHT22;30019;50.576;8.568;2023-05-01T23:57:04;10.20;99.90
44305;DHT22;30019;50.576;8.568;2023-05-01T23:59:30;10.20;99.90
